CheckWX is a tool to help pilots better visualize weather data.  It is not intended as a substitute for an official pre-flight weather briefing.

12:03:00 UTC

KIPJ METAR
Lincolnton-Lincoln County Regional Airport
Lincolnton, North Carolina, USA
Current

8 mins ago

KIPJ 251155Z AUTO 00000KT 10SM BKN100 07/06 A3004 RMK AO2 T00670055 10127 20058
Observed
Mar-25 @ 11:55 UTC
Visibility
10 SM
Flight Rules
VFR
Cloud Levels
  • Broken at 10,000' AGL
Temperature
C / 45°F
Dewpoint
C / 43°F
Humidity
93%
Altimeter
30.04" Hg
Pressure
1017.32 hPa
Previous

28 mins ago

KIPJ 251135Z AUTO 00000KT 10SM OVC100 07/06 A3005 RMK AO2 T00720058
Observed
Mar-25 @ 11:35 UTC
Visibility
10 SM
Flight Rules
VFR
Cloud Levels
  • Overcast at 10,000' AGL
Temperature
C / 45°F
Dewpoint
C / 43°F
Humidity
93%
Altimeter
30.05" Hg
Pressure
1017.62 hPa
Previous

48 mins ago

KIPJ 251115Z AUTO 00000KT 10SM OVC100 08/07 A3005 RMK AO2 T00780065
Observed
Mar-25 @ 11:15 UTC
Visibility
10 SM
Flight Rules
VFR
Cloud Levels
  • Overcast at 10,000' AGL
Temperature
C / 46°F
Dewpoint
C / 45°F
Humidity
93%
Altimeter
30.05" Hg
Pressure
1017.62 hPa